Time;durP1;ratioP1;P1;durP2;ratioP2;P2;SDS_P1;SDS_P2;PMS_P1;PMS_P2;Temp;Humidity;BMP_temperature;BMP_pressure;BME280_temperature;BME280_humidity;BME280_pressure;Samples;Min_cycle;Max_cycle;Signal;HPM_P1;HPM_P2
2021/04/21 00:01:30;;;;;;;10.23;6.15;;;;;;;5.21;97.79;97932.75;5032906;28;20048;-75
2021/04/21 00:03:57;;;;;;;10.07;6.30;;;;;;;5.19;98.52;97924.09;5032453;28;20429;-74
2021/04/21 00:06:23;;;;;;;8.57;6.40;;;;;;;5.12;98.13;97926.19;5035278;28;20529;-74
2021/04/21 00:08:49;;;;;;;7.82;6.20;;;;;;;5.12;98.49;97928.91;5037503;28;20099;-76
2021/04/21 00:11:16;;;;;;;9.18;5.97;;;;;;;5.08;98.80;97921.53;5035006;28;20095;-75
2021/04/21 00:13:45;;;;;;;9.45;6.22;;;;;;;4.98;98.96;97932.34;5032073;28;20028;-74
2021/04/21 00:16:13;;;;;;;7.93;6.20;;;;;;;5.03;99.39;97933.19;5031787;28;20029;-75
2021/04/21 00:18:42;;;;;;;7.72;6.22;;;;;;;5.03;98.53;97932.38;5032408;28;20037;-75
2021/04/21 00:21:09;;;;;;;11.38;7.32;;;;;;;4.87;98.39;97923.31;5031856;28;20513;-75
2021/04/21 00:23:36;;;;;;;11.30;8.55;;;;;;;4.85;99.14;97920.06;5033693;28;20037;-75
2021/04/21 00:26:08;;;;;;;10.43;6.60;;;;;;;4.64;99.38;97920.94;5034220;28;20461;-74
2021/04/21 00:28:34;;;;;;;10.20;8.57;;;;;;;4.56;99.92;97918.72;5031644;28;20044;-74
2021/04/21 00:31:05;;;;;;;10.13;7.63;;;;;;;4.52;100.00;97917.59;5031874;28;20505;-75
2021/04/21 00:33:34;;;;;;;11.05;8.90;;;;;;;4.51;100.00;97910.56;5032133;28;20022;-75
2021/04/21 00:36:02;;;;;;;11.32;9.40;;;;;;;4.59;100.00;97915.50;5032193;28;20025;-75
2021/04/21 00:38:28;;;;;;;13.32;10.02;;;;;;;4.72;100.00;97912.34;5031344;28;20021;-74
2021/04/21 00:40:59;;;;;;;10.85;8.98;;;;;;;4.82;100.00;97917.88;5032703;28;20383;-75
2021/04/21 00:43:52;;;;;;;9.50;8.43;;;;;;;4.64;99.79;97918.22;5031351;28;20072;-75
2021/04/21 00:46:50;;;;;;;10.88;8.15;;;;;;;4.57;100.00;97913.06;5031950;28;20022;-76
2021/04/21 00:49:34;;;;;;;10.43;7.68;;;;;;;4.48;100.00;97908.38;5030194;28;20065;-76
2021/04/21 00:52:10;;;;;;;10.07;8.25;;;;;;;4.50;100.00;97908.91;5031080;28;20061;-75
2021/04/21 00:55:08;;;;;;;11.98;9.52;;;;;;;4.47;100.00;97901.31;5030721;28;20033;-74
2021/04/21 00:57:39;;;;;;;16.27;11.63;;;;;;;4.37;100.00;97901.22;5031237;28;20042;-76
2021/04/21 01:00:08;;;;;;;21.27;13.32;;;;;;;4.47;100.00;97901.31;5031401;28;20064;-75
2021/04/21 01:02:37;;;;;;;23.70;17.63;;;;;;;4.43;100.00;97889.34;5031420;28;20029;-74
2021/04/21 01:05:15;;;;;;;20.60;14.52;;;;;;;4.36;100.00;97892.25;5031894;28;20040;-76
2021/04/21 01:07:43;;;;;;;17.13;14.85;;;;;;;4.30;100.00;97902.25;5031732;28;20041;-75
2021/04/21 01:10:11;;;;;;;20.13;15.27;;;;;;;4.25;100.00;97902.19;5031459;28;20029;-75
2021/04/21 01:12:38;;;;;;;19.13;14.73;;;;;;;4.27;100.00;97905.47;5030764;28;20345;-75
2021/04/21 01:15:05;;;;;;;15.52;12.02;;;;;;;4.26;100.00;97914.63;5030644;28;20029;-75
2021/04/21 01:17:33;;;;;;;20.83;13.20;;;;;;;4.38;100.00;97903.69;5032227;28;20037;-75
2021/04/21 01:19:58;;;;;;;17.02;12.48;;;;;;;4.43;100.00;97903.72;5032550;28;20132;-74
2021/04/21 01:22:47;;;;;;;18.23;13.13;;;;;;;4.53;100.00;97911.09;5031829;28;20113;-74
2021/04/21 01:25:23;;;;;;;14.48;11.93;;;;;;;4.55;100.00;97911.66;5029918;28;20043;-75
2021/04/21 01:28:05;;;;;;;15.37;12.47;;;;;;;4.45;100.00;97906.97;5030970;28;20041;-75
2021/04/21 01:30:35;;;;;;;16.80;11.00;;;;;;;4.67;100.00;97905.00;5033167;28;20029;-76
2021/04/21 01:33:03;;;;;;;15.70;12.57;;;;;;;4.51;100.00;97913.28;5033375;28;20074;-76
2021/04/21 01:35:30;;;;;;;15.18;11.27;;;;;;;4.37;100.00;97912.88;5033581;28;20029;-75
2021/04/21 01:38:01;;;;;;;12.85;9.02;;;;;;;4.41;99.82;97915.88;5033146;28;20037;-75
2021/04/21 01:40:45;;;;;;;14.35;9.02;;;;;;;4.44;99.36;97909.94;5030781;28;20022;-75
2021/04/21 01:43:22;;;;;;;13.07;10.43;;;;;;;4.32;99.31;97913.63;5030589;28;20112;-77
2021/04/21 01:45:52;;;;;;;16.05;9.63;;;;;;;4.32;99.51;97913.63;5030269;28;20021;-75
2021/04/21 01:48:26;;;;;;;14.80;10.23;;;;;;;4.23;99.93;97917.03;5030586;28;20030;-76
2021/04/21 01:50:53;;;;;;;15.70;11.73;;;;;;;4.25;100.00;97921.16;5030360;28;20026;-77
2021/04/21 01:53:38;;;;;;;16.50;12.30;;;;;;;4.39;100.00;97915.28;5031142;28;20057;-75
2021/04/21 01:56:17;;;;;;;13.95;10.05;;;;;;;4.16;100.00;97914.56;5034400;28;20389;-76
2021/04/21 01:59:08;;;;;;;9.77;8.63;;;;;;;4.08;100.00;97912.31;5035477;28;20021;-75
2021/04/21 02:01:43;;;;;;;12.38;8.57;;;;;;;4.13;100.00;97917.78;5035468;28;20486;-75
2021/04/21 02:04:14;;;;;;;9.80;8.07;;;;;;;4.14;100.00;97913.97;5034174;28;20566;-75
2021/04/21 02:06:50;;;;;;;11.65;8.45;;;;;;;4.19;100.00;97913.22;5037048;28;20046;-76
2021/04/21 02:09:54;;;;;;;13.60;8.93;;;;;;;4.17;99.74;97915.34;5037552;28;20033;-80
2021/04/21 02:12:41;;;;;;;13.00;9.20;;;;;;;4.27;99.09;97916.28;5027057;28;20065;-76
2021/04/21 02:15:33;;;;;;;13.98;8.90;;;;;;;4.23;99.37;97915.16;5033264;28;20052;-75
2021/04/21 02:18:20;;;;;;;11.57;8.50;;;;;;;4.19;99.29;97924.06;5036138;28;20056;-75
2021/04/21 02:21:19;;;;;;;12.35;8.55;;;;;;;4.21;99.44;97930.03;5035882;28;20103;-75
2021/04/21 02:23:50;;;;;;;11.55;9.15;;;;;;;4.07;99.88;97932.31;5036221;28;20032;-78
2021/04/21 02:26:26;;;;;;;12.40;8.20;;;;;;;3.96;100.00;97922.44;5039233;28;20033;-86
2021/04/21 02:29:34;;;;;;;10.73;7.47;;;;;;;3.84;100.00;97916.38;5034412;28;20048;-75
2021/04/21 02:32:18;;;;;;;10.90;8.27;;;;;;;3.82;100.00;97915.00;5033131;28;20034;-75
2021/04/21 02:35:08;;;;;;;12.70;7.55;;;;;;;3.93;100.00;97919.44;5033260;28;20393;-76
2021/04/21 02:38:18;;;;;;;16.55;8.50;;;;;;;3.84;100.00;97927.19;5032105;28;20084;-75
2021/04/21 02:41:04;;;;;;;9.80;7.55;;;;;;;3.98;99.92;97923.00;5024539;28;20048;-75
2021/04/21 02:43:36;;;;;;;9.13;5.17;;;;;;;4.02;100.00;97923.31;5032707;28;20026;-75
2021/04/21 02:46:22;;;;;;;9.52;7.05;;;;;;;3.89;100.00;97926.41;5031787;28;20033;-75
2021/04/21 02:49:03;;;;;;;13.15;7.75;;;;;;;3.79;100.00;97924.41;5031853;28;20052;-75
2021/04/21 02:51:54;;;;;;;8.98;6.80;;;;;;;3.76;100.00;97930.31;5033235;28;20041;-75
2021/04/21 02:54:52;;;;;;;9.75;7.00;;;;;;;3.68;100.00;97933.47;5031858;28;20029;-75
2021/04/21 02:57:28;;;;;;;11.50;7.97;;;;;;;3.72;100.00;97929.22;5034056;28;20026;-75
2021/04/21 03:00:04;;;;;;;11.88;8.07;;;;;;;3.79;100.00;97929.81;5032968;28;20068;-76
2021/04/21 03:02:45;;;;;;;12.27;7.90;;;;;;;3.67;100.00;97931.84;5032382;28;20044;-75
2021/04/21 03:05:15;;;;;;;11.52;8.25;;;;;;;3.61;100.00;97930.97;5031497;28;20091;-75
2021/04/21 03:07:53;;;;;;;11.20;7.75;;;;;;;3.63;100.00;97931.53;5032899;28;20034;-76
2021/04/21 03:10:22;;;;;;;13.48;7.75;;;;;;;3.58;100.00;97925.22;5033480;28;20021;-75
2021/04/21 03:12:54;;;;;;;11.23;7.68;;;;;;;3.74;100.00;97918.94;5033611;28;20037;-75
2021/04/21 03:15:21;;;;;;;12.77;8.57;;;;;;;3.53;100.00;97900.84;5034098;28;20775;-75
2021/04/21 03:17:52;;;;;;;12.65;7.40;;;;;;;3.60;100.00;97915.78;5033847;28;20030;-75
2021/04/21 03:20:20;;;;;;;10.50;7.95;;;;;;;3.61;100.00;97925.56;5033087;28;20042;-74
2021/04/21 03:22:51;;;;;;;9.77;7.75;;;;;;;3.51;100.00;97921.91;5032599;28;20029;-74
2021/04/21 03:25:37;;;;;;;13.23;8.30;;;;;;;3.51;100.00;97922.72;5032417;28;20057;-80
2021/04/21 03:28:07;;;;;;;11.20;7.65;;;;;;;3.53;100.00;97920.59;5033245;28;20028;-75
2021/04/21 03:30:35;;;;;;;10.77;8.70;;;;;;;3.45;100.00;97912.09;5032362;28;20534;-74
2021/04/21 03:33:08;;;;;;;11.93;8.77;;;;;;;3.49;100.00;97914.03;5031235;28;20128;-75
2021/04/21 03:35:35;;;;;;;12.07;8.75;;;;;;;3.53;100.00;97917.06;5031839;28;20041;-74
2021/04/21 03:38:10;;;;;;;10.30;8.45;;;;;;;3.37;100.00;97915.22;5031072;28;20397;-75
2021/04/21 03:40:38;;;;;;;10.52;8.07;;;;;;;3.43;100.00;97906.94;5032329;28;20064;-74
2021/04/21 03:43:04;;;;;;;10.07;7.68;;;;;;;3.58;100.00;97912.53;5031881;28;20367;-74
2021/04/21 03:45:30;;;;;;;13.93;9.20;;;;;;;3.47;100.00;97905.38;5032156;28;20064;-75
2021/04/21 03:47:57;;;;;;;11.65;8.10;;;;;;;3.52;100.00;97910.00;5026329;28;20053;-75
2021/04/21 03:50:25;;;;;;;9.55;7.65;;;;;;;3.58;99.82;97922.53;5014854;28;20113;-75
2021/04/21 03:53:00;;;;;;;11.25;7.88;;;;;;;3.56;100.00;97924.69;5015989;28;20014;-75
2021/04/21 03:55:26;;;;;;;11.93;8.00;;;;;;;3.56;99.97;97925.50;5032917;28;20026;-74
2021/04/21 03:57:57;;;;;;;11.05;8.13;;;;;;;3.59;100.00;97918.78;5032320;28;20030;-76
2021/04/21 04:00:25;;;;;;;10.85;8.73;;;;;;;3.69;99.41;97921.59;5033576;28;20045;-75
2021/04/21 04:02:56;;;;;;;9.95;7.22;;;;;;;3.43;98.91;97920.47;5032528;28;20048;-75
2021/04/21 04:05:27;;;;;;;13.10;8.40;;;;;;;3.53;100.00;97928.72;5025430;28;20424;-75
2021/04/21 04:07:59;;;;;;;11.93;8.07;;;;;;;3.47;99.81;97929.72;5010858;28;20026;-75
2021/04/21 04:10:26;;;;;;;12.88;8.13;;;;;;;3.39;99.65;97929.31;5011517;28;20048;-75
2021/04/21 04:12:54;;;;;;;18.55;11.65;;;;;;;3.34;100.00;97929.25;5014712;28;20033;-76
2021/04/21 04:15:21;;;;;;;12.98;10.15;;;;;;;3.56;100.00;97932.78;5012588;28;20038;-75
2021/04/21 04:17:48;;;;;;;18.52;10.90;;;;;;;3.43;99.66;97930.44;5011738;28;20398;-75
2021/04/21 04:20:15;;;;;;;13.48;10.20;;;;;;;3.47;99.78;97945.13;5010766;28;20057;-76
2021/04/21 04:22:47;;;;;;;13.43;10.38;;;;;;;3.35;99.85;97933.59;5026911;28;20064;-75
2021/04/21 04:25:15;;;;;;;19.30;10.98;;;;;;;3.58;99.24;97942.28;5027859;28;20021;-75
2021/04/21 04:27:41;;;;;;;19.20;9.82;;;;;;;3.58;98.95;97944.16;5030850;28;20017;-74
2021/04/21 04:30:07;;;;;;;12.43;8.93;;;;;;;3.67;98.94;97948.88;5029293;28;20440;-74
2021/04/21 04:32:40;;;;;;;11.18;8.15;;;;;;;3.75;98.09;97948.47;5032068;28;20025;-74
2021/04/21 04:35:08;;;;;;;10.95;8.73;;;;;;;3.67;98.33;97953.47;5010964;28;20061;-74
2021/04/21 04:37:38;;;;;;;11.25;8.02;;;;;;;3.74;98.48;97949.53;5013718;28;20021;-76
2021/04/21 04:40:04;;;;;;;9.32;7.55;;;;;;;3.92;98.22;97956.50;5026623;28;20021;-76
2021/04/21 04:42:31;;;;;;;9.18;7.30;;;;;;;3.96;97.80;97960.34;5029688;28;20033;-75
2021/04/21 04:44:56;;;;;;;9.30;7.43;;;;;;;3.97;97.64;97958.44;5028876;28;20103;-75
2021/04/21 04:47:29;;;;;;;11.13;6.57;;;;;;;3.94;98.23;97959.78;5029281;28;20025;-75
2021/04/21 04:50:03;;;;;;;13.40;6.90;;;;;;;4.03;98.37;97960.97;5029170;28;20013;-76
2021/04/21 04:52:31;;;;;;;9.75;6.78;;;;;;;4.12;98.79;97966.75;5021753;28;20378;-75
2021/04/21 04:54:59;;;;;;;10.48;7.18;;;;;;;4.16;98.09;97967.88;5018869;28;20042;-76
2021/04/21 04:57:28;;;;;;;11.07;6.63;;;;;;;4.16;98.43;97974.13;5026581;28;20030;-75
2021/04/21 04:59:58;;;;;;;15.70;7.93;;;;;;;4.14;98.10;97965.41;5027956;28;20024;-76
2021/04/21 05:02:26;;;;;;;15.80;8.10;;;;;;;4.22;98.11;97973.09;5030698;28;20033;-76
2021/04/21 05:04:59;;;;;;;19.20;10.15;;;;;;;4.22;99.62;97973.09;5028217;28;20044;-76
2021/04/21 05:07:49;;;;;;;14.75;9.85;;;;;;;4.40;99.53;97968.38;5028353;28;20750;-76
2021/04/21 05:10:29;;;;;;;16.27;10.00;;;;;;;4.22;99.94;97973.09;5027141;28;20029;-75
2021/04/21 05:13:04;;;;;;;15.68;9.65;;;;;;;4.51;98.75;97983.69;5026635;28;20028;-75
2021/04/21 05:15:32;;;;;;;14.40;9.48;;;;;;;4.47;98.06;97982.53;5026797;28;20064;-75
2021/04/21 05:18:19;;;;;;;19.38;10.80;;;;;;;4.62;98.49;97982.69;5032989;28;20028;-75
2021/04/21 05:21:22;;;;;;;18.10;12.15;;;;;;;4.51;98.06;97979.06;5030513;28;20049;-75
2021/04/21 05:24:11;;;;;;;15.45;10.65;;;;;;;4.55;98.76;97990.19;5028536;28;20389;-75
2021/04/21 05:27:07;;;;;;;20.10;11.63;;;;;;;4.60;98.77;97991.09;5028151;28;20034;-75
2021/04/21 05:29:47;;;;;;;16.40;10.88;;;;;;;4.75;99.02;97980.38;5029155;28;20017;-87
2021/04/21 05:33:01;;;;;;;20.48;13.00;;;;;;;4.83;97.93;97989.91;5030711;28;20029;-75
2021/04/21 05:36:05;;;;;;;23.88;12.65;;;;;;;4.98;97.66;97992.75;4991730;28;20062;-75
2021/04/21 05:38:30;;;;;;;26.48;12.70;;;;;;;5.10;96.57;98003.44;5025213;28;20056;-76
2021/04/21 05:41:34;;;;;;;18.98;11.40;;;;;;;5.08;96.11;98000.16;5029640;28;20064;-75
2021/04/21 05:44:22;;;;;;;20.38;11.60;;;;;;;5.13;96.23;98001.03;5028602;28;20037;-74
2021/04/21 05:47:13;;;;;;;14.98;10.25;;;;;;;5.07;95.82;98002.06;5029956;28;20100;-75
2021/04/21 05:50:09;;;;;;;24.98;15.43;;;;;;;5.15;96.19;98004.28;5030986;28;20167;-75
2021/04/21 05:52:52;;;;;;;19.33;11.68;;;;;;;5.44;95.39;98003.97;5030757;28;20140;-74
2021/04/21 05:55:36;;;;;;;20.70;12.32;;;;;;;5.46;94.59;98005.31;5030438;28;20478;-75
2021/04/21 05:58:20;;;;;;;18.10;11.45;;;;;;;5.69;94.05;98013.09;5029776;28;20095;-75
2021/04/21 06:00:54;;;;;;;20.85;11.68;;;;;;;5.44;94.39;98012.91;5031167;28;20025;-74
2021/04/21 06:03:21;;;;;;;21.77;12.30;;;;;;;5.36;95.33;98011.50;5030385;28;20163;-76
2021/04/21 06:05:47;;;;;;;15.88;12.15;;;;;;;5.50;95.03;98002.91;5030198;28;20053;-73
2021/04/21 06:08:13;;;;;;;16.10;12.43;;;;;;;5.65;94.47;98008.44;5029821;28;20065;-75
2021/04/21 06:10:40;;;;;;;21.83;13.07;;;;;;;5.94;93.64;98012.44;5028227;28;20030;-76
2021/04/21 06:13:06;;;;;;;18.48;11.98;;;;;;;5.79;92.86;98013.16;5030098;28;20065;-75
2021/04/21 06:15:36;;;;;;;18.23;13.57;;;;;;;5.80;93.02;98006.63;5029170;28;20034;-75
2021/04/21 06:18:09;;;;;;;16.83;12.13;;;;;;;6.25;92.46;98008.75;5029067;28;20030;-75
2021/04/21 06:20:44;;;;;;;23.27;13.23;;;;;;;6.27;91.21;98009.31;5028809;28;20052;-75
2021/04/21 06:23:12;;;;;;;18.17;11.95;;;;;;;6.78;89.27;98001.28;5028759;28;20049;-75
2021/04/21 06:25:42;;;;;;;19.27;11.77;;;;;;;7.06;87.11;98003.47;5031226;28;20071;-75
2021/04/21 06:28:23;;;;;;;15.00;10.05;;;;;;;6.97;86.22;98003.22;5030596;28;20498;-75
2021/04/21 06:30:50;;;;;;;16.75;10.55;;;;;;;6.94;86.66;98000.22;5030578;28;20024;-75
2021/04/21 06:33:17;;;;;;;17.40;11.23;;;;;;;6.95;86.40;97985.56;5027845;28;20497;-75
2021/04/21 06:35:43;;;;;;;16.73;11.93;;;;;;;7.44;85.69;98004.84;5030805;28;20497;-75
2021/04/21 06:38:11;;;;;;;16.92;10.35;;;;;;;7.18;86.87;97995.88;5031519;28;20033;-74
2021/04/21 06:40:38;;;;;;;15.38;10.90;;;;;;;7.70;85.31;98002.91;5033231;28;20536;-74
2021/04/21 06:43:04;;;;;;;12.70;9.95;;;;;;;7.71;83.65;98007.22;5034415;28;20036;-74
2021/04/21 06:45:35;;;;;;;15.15;10.05;;;;;;;7.73;82.70;98002.34;5033354;28;20034;-77
2021/04/21 06:48:04;;;;;;;15.55;10.77;;;;;;;7.96;82.16;98007.16;5032001;28;20064;-75
2021/04/21 06:50:32;;;;;;;15.63;9.50;;;;;;;8.01;81.50;98004.44;5035327;28;20029;-75
2021/04/21 06:53:00;;;;;;;13.07;8.85;;;;;;;8.05;81.09;98006.31;5034452;28;20043;-75
2021/04/21 06:55:27;;;;;;;11.18;8.98;;;;;;;8.17;81.10;98014.19;5033347;28;20028;-75
2021/04/21 06:57:53;;;;;;;12.68;9.73;;;;;;;8.28;80.20;98013.09;5035028;28;20014;-76
2021/04/21 07:00:22;;;;;;;13.65;9.27;;;;;;;8.63;79.29;98006.66;5035563;28;20036;-75
2021/04/21 07:02:51;;;;;;;11.43;7.72;;;;;;;8.96;76.80;98010.50;5033098;28;20026;-75
2021/04/21 07:05:41;;;;;;;11.50;8.75;;;;;;;9.06;77.42;98011.25;5032878;28;20053;-75
2021/04/21 07:08:11;;;;;;;11.80;8.00;;;;;;;9.28;75.31;98010.81;5031596;28;20045;-75
2021/04/21 07:10:47;;;;;;;16.20;8.32;;;;;;;9.79;74.94;98013.91;5033128;28;20025;-76
2021/04/21 07:13:32;;;;;;;10.57;8.68;;;;;;;11.63;66.63;98014.66;5032638;28;20113;-75
2021/04/21 07:16:03;;;;;;;11.43;6.82;;;;;;;11.64;65.62;98011.66;5037908;28;20037;-79
2021/04/21 07:18:42;;;;;;;11.15;6.07;;;;;;;11.65;63.99;98006.97;5038283;28;20477;-75
2021/04/21 07:21:08;;;;;;;7.93;6.63;;;;;;;11.68;63.19;98001.69;5032303;28;20053;-75
2021/04/21 07:23:38;;;;;;;11.05;6.97;;;;;;;12.22;61.02;98022.09;5031672;28;20100;-76
2021/04/21 07:26:07;;;;;;;12.93;7.07;;;;;;;13.35;60.89;98017.44;5031891;28;20587;-75
2021/04/21 07:28:37;;;;;;;7.43;5.60;;;;;;;12.50;59.20;98018.22;5031014;28;20033;-75
2021/04/21 07:31:17;;;;;;;12.80;5.93;;;;;;;13.23;58.59;98019.94;5030104;28;20029;-74
2021/04/21 07:33:48;;;;;;;9.25;5.63;;;;;;;14.23;57.35;98015.72;5030466;28;20080;-75
2021/04/21 07:36:20;;;;;;;7.35;5.45;;;;;;;14.39;54.92;98014.19;5031393;28;20524;-74
2021/04/21 07:38:48;;;;;;;7.28;5.63;;;;;;;13.77;55.44;98013.38;5031644;28;20080;-74
2021/04/21 07:41:29;;;;;;;7.00;5.90;;;;;;;13.10;57.77;98015.31;5030981;28;20032;-75
2021/04/21 07:43:55;;;;;;;7.72;5.45;;;;;;;13.63;57.00;98013.44;5030750;28;20040;-75
2021/04/21 07:46:22;;;;;;;13.77;6.20;;;;;;;13.76;58.79;98015.31;5031388;28;20029;-75
2021/04/21 07:48:49;;;;;;;9.05;5.78;;;;;;;14.56;54.70;98013.44;5031683;28;20014;-75
2021/04/21 07:51:14;;;;;;;7.78;6.00;;;;;;;14.35;56.99;98007.69;5030125;28;20075;-76
2021/04/21 07:53:53;;;;;;;9.07;4.88;;;;;;;14.50;53.15;98009.22;5030318;28;20433;-74
2021/04/21 07:56:21;;;;;;;7.30;6.15;;;;;;;15.00;51.52;98005.75;5029885;28;20017;-75
2021/04/21 07:58:47;;;;;;;7.25;5.70;;;;;;;15.38;53.71;98016.16;5031787;28;20183;-77
2021/04/21 08:01:13;;;;;;;6.97;5.30;;;;;;;16.91;48.08;98016.84;5029262;28;20551;-75
2021/04/21 08:03:39;;;;;;;6.72;5.00;;;;;;;17.32;46.62;98010.47;5030661;28;20029;-75
2021/04/21 08:06:04;;;;;;;5.53;4.63;;;;;;;16.93;46.64;98020.06;5029866;28;20440;-75
2021/04/21 08:08:34;;;;;;;6.85;5.22;;;;;;;15.77;49.08;98010.44;5028992;28;20021;-74
2021/04/21 08:11:01;;;;;;;20.52;4.43;;;;;;;16.43;47.05;98010.88;5030142;28;20040;-75
2021/04/21 08:13:43;;;;;;;8.98;4.35;;;;;;;16.31;48.05;98013.53;5030638;28;20084;-75
2021/04/21 08:16:27;;;;;;;7.22;4.60;;;;;;;16.65;48.84;98009.81;5031000;28;20036;-74
2021/04/21 08:18:56;;;;;;;4.13;3.72;;;;;;;16.49;47.20;98006.78;5029427;28;20481;-74
2021/04/21 08:21:42;;;;;;;6.03;3.85;;;;;;;16.75;47.24;98006.69;5031633;28;20045;-75
2021/04/21 08:24:15;;;;;;;5.20;4.45;;;;;;;16.49;48.35;97999.31;5030448;28;20440;-75
2021/04/21 08:26:46;;;;;;;8.00;4.22;;;;;;;16.92;46.21;97999.09;5030824;28;20029;-75
2021/04/21 08:29:13;;;;;;;6.20;4.00;;;;;;;18.12;45.06;97995.25;5031342;28;20060;-75
2021/04/21 08:31:42;;;;;;;8.73;4.72;;;;;;;17.71;43.75;97998.13;5030901;28;20017;-75
2021/04/21 08:34:07;;;;;;;7.15;4.80;;;;;;;17.84;43.96;98002.56;5029505;28;20033;-75
2021/04/21 08:36:33;;;;;;;7.55;4.68;;;;;;;18.49;42.14;97998.06;5029691;28;20435;-75
2021/04/21 08:38:58;;;;;;;5.55;4.50;;;;;;;19.15;39.70;98002.19;5045622;28;20059;-75
2021/04/21 08:41:27;;;;;;;8.05;5.18;;;;;;;18.68;41.07;98004.69;5028727;28;20029;-74
2021/04/21 08:43:54;;;;;;;7.90;4.70;;;;;;;18.40;41.69;97995.41;5029481;28;20037;-75
2021/04/21 08:46:20;;;;;;;7.28;4.40;;;;;;;19.45;39.73;97990.81;5029896;28;20053;-76
2021/04/21 08:48:46;;;;;;;6.85;4.65;;;;;;;19.54;39.45;97983.16;5032024;28;20060;-75
2021/04/21 08:51:17;;;;;;;8.43;6.00;;;;;;;20.39;37.63;97983.50;5030081;28;20031;-74
2021/04/21 08:53:46;;;;;;;8.52;4.82;;;;;;;19.98;38.45;97990.34;5028110;28;20037;-75
2021/04/21 08:56:18;;;;;;;11.52;4.75;;;;;;;20.34;37.12;97988.50;5030370;28;20362;-75
2021/04/21 08:58:49;;;;;;;9.95;5.38;;;;;;;21.06;37.09;97998.19;5031030;28;20030;-75
2021/04/21 09:01:15;;;;;;;6.90;4.97;;;;;;;20.57;36.75;97989.50;5030101;28;20116;-74
2021/04/21 09:03:45;;;;;;;4.80;4.10;;;;;;;21.50;35.76;97998.81;5029044;28;20029;-75
2021/04/21 09:06:12;;;;;;;4.80;3.78;;;;;;;22.10;35.01;97988.88;5029509;28;20030;-74
2021/04/21 09:08:39;;;;;;;4.70;3.30;;;;;;;23.12;32.84;97987.81;5032087;28;20083;-75
2021/04/21 09:11:05;;;;;;;6.18;3.70;;;;;;;22.51;34.18;97982.47;5030509;28;20033;-76
2021/04/21 09:13:31;;;;;;;4.68;3.88;;;;;;;21.95;34.45;97987.00;5030097;28;20080;-74
2021/04/21 09:15:57;;;;;;;4.82;3.70;;;;;;;22.27;34.33;97988.41;5030394;28;20033;-75
2021/04/21 09:18:27;;;;;;;6.53;3.13;;;;;;;22.35;33.68;97982.59;5030472;28;20075;-72
2021/04/21 09:20:53;;;;;;;5.35;3.08;;;;;;;21.57;35.21;97985.03;5028655;28;20456;-72
2021/04/21 09:23:20;;;;;;;3.13;2.33;;;;;;;21.76;34.90;97982.25;5033528;28;20100;-74
2021/04/21 09:25:54;;;;;;;4.10;2.85;;;;;;;20.62;37.08;97975.31;5030893;28;20033;-73
2021/04/21 09:28:22;;;;;;;3.10;2.75;;;;;;;22.49;34.03;97970.06;5029978;28;20036;-73
2021/04/21 09:30:51;;;;;;;3.40;2.70;;;;;;;23.04;32.64;97969.38;5029956;28;20026;-74
2021/04/21 09:33:18;;;;;;;3.85;2.50;;;;;;;21.34;35.04;97971.84;5028406;28;20029;-73
2021/04/21 09:35:44;;;;;;;2.95;2.17;;;;;;;22.15;33.49;97964.31;5028998;28;20029;-73
2021/04/21 09:38:12;;;;;;;4.47;3.05;;;;;;;22.02;32.67;97960.06;5029473;28;20041;-74
2021/04/21 09:40:48;;;;;;;5.85;2.83;;;;;;;22.56;31.33;97947.88;5029745;28;20022;-73
2021/04/21 09:43:23;;;;;;;3.80;2.50;;;;;;;21.96;32.56;97953.19;5029100;28;20045;-73
2021/04/21 09:45:50;;;;;;;4.50;3.08;;;;;;;22.86;30.88;97957.16;5029017;28;20080;-72
2021/04/21 09:48:18;;;;;;;5.93;3.72;;;;;;;22.82;29.82;97959.06;5029102;28;20056;-73
2021/04/21 09:51:05;;;;;;;5.43;2.97;;;;;;;23.41;29.43;97963.91;5028098;28;20405;-75
2021/04/21 09:53:33;;;;;;;7.90;4.38;;;;;;;23.31;29.76;97961.75;5028206;28;20064;-75
2021/04/21 09:56:18;;;;;;;6.18;5.10;;;;;;;21.80;30.33;97949.72;5029699;28;20022;-76
2021/04/21 09:58:45;;;;;;;5.70;4.20;;;;;;;22.06;30.89;97958.16;5031212;28;20025;-75
2021/04/21 10:01:37;;;;;;;8.30;3.25;;;;;;;21.61;31.20;97944.97;5029328;28;20060;-74
2021/04/21 10:04:24;;;;;;;4.65;3.85;;;;;;;22.13;30.35;97944.38;5022945;28;20042;-75
2021/04/21 10:06:55;;;;;;;4.75;3.55;;;;;;;22.33;30.66;97945.91;5008024;28;20022;-74
2021/04/21 10:09:31;;;;;;;9.13;3.58;;;;;;;22.25;30.64;97941.41;5009482;28;20486;-74
2021/04/21 10:12:13;;;;;;;4.93;3.55;;;;;;;22.76;29.04;97952.22;5023298;28;20473;-73
2021/04/21 10:14:39;;;;;;;4.13;3.13;;;;;;;20.73;31.98;97941.06;5030141;28;20812;-75
2021/04/21 10:17:05;;;;;;;4.63;3.90;;;;;;;18.35;35.74;97936.66;5034501;28;20033;-74
2021/04/21 10:19:32;;;;;;;4.55;3.17;;;;;;;18.58;36.33;97935.03;5033632;28;20068;-73
2021/04/21 10:21:58;;;;;;;7.32;5.28;;;;;;;20.16;33.70;97949.13;5032418;28;20107;-73
2021/04/21 10:24:25;;;;;;;8.60;3.30;;;;;;;22.46;29.91;97940.94;5030536;28;20401;-75
2021/04/21 10:26:51;;;;;;;5.10;4.03;;;;;;;21.79;30.49;97943.31;5032810;28;20026;-74
2021/04/21 10:29:17;;;;;;;10.90;4.50;;;;;;;19.98;33.16;97940.34;5033444;28;20041;-74
2021/04/21 10:31:42;;;;;;;5.78;3.90;;;;;;;19.23;34.73;97945.75;5033006;28;20025;-73
2021/04/21 10:34:08;;;;;;;5.20;3.65;;;;;;;19.08;36.76;97949.28;5035704;28;20020;-76
2021/04/21 10:36:33;;;;;;;5.68;3.63;;;;;;;18.62;36.52;97941.50;5033201;28;20022;-74
2021/04/21 10:38:59;;;;;;;5.45;4.03;;;;;;;18.71;36.76;97939.41;5032654;28;20072;-76
2021/04/21 10:41:36;;;;;;;6.22;4.30;;;;;;;18.92;35.71;97930.97;5032605;28;20079;-75
2021/04/21 10:44:15;;;;;;;6.38;4.25;;;;;;;18.36;36.87;97936.31;5035136;28;20049;-75
2021/04/21 10:47:04;;;;;;;7.85;4.22;;;;;;;19.15;35.74;97930.09;5033384;28;20512;-74
2021/04/21 10:49:43;;;;;;;7.95;4.60;;;;;;;18.71;35.91;97929.16;5032815;28;20481;-74
2021/04/21 10:52:27;;;;;;;5.38;3.72;;;;;;;19.45;35.35;97930.56;5032613;28;20022;-74
2021/04/21 10:55:08;;;;;;;4.95;3.45;;;;;;;19.29;34.94;97920.56;5032418;28;20037;-74
2021/04/21 10:57:57;;;;;;;5.38;3.92;;;;;;;18.94;36.52;97926.69;5032222;28;20029;-74
2021/04/21 11:00:35;;;;;;;6.35;4.85;;;;;;;18.51;36.36;97929.31;5032041;28;20029;-74
2021/04/21 11:03:15;;;;;;;5.93;4.05;;;;;;;18.26;36.82;97927.66;5029809;28;20421;-76
2021/04/21 11:05:46;;;;;;;8.23;4.03;;;;;;;18.25;37.31;97909.41;5030426;28;20029;-76
2021/04/21 11:08:17;;;;;;;8.27;4.85;;;;;;;17.75;38.40;97907.75;5027765;28;20037;-76
2021/04/21 11:10:47;;;;;;;8.35;4.97;;;;;;;17.44;38.50;97918.50;5010602;28;20530;-74
2021/04/21 11:13:35;;;;;;;8.13;4.60;;;;;;;17.64;38.84;97912.91;5010743;28;20049;-75
2021/04/21 11:16:05;;;;;;;7.38;4.88;;;;;;;17.79;38.28;97914.25;5013688;28;20053;-74
2021/04/21 11:18:32;;;;;;;9.48;5.05;;;;;;;17.84;37.54;97910.44;5024090;28;20065;-75
2021/04/21 11:21:09;;;;;;;7.43;5.13;;;;;;;18.04;37.20;97910.31;5032036;28;20098;-74
2021/04/21 11:23:57;;;;;;;8.57;4.97;;;;;;;17.64;37.98;97906.56;5033107;28;20560;-74
2021/04/21 11:26:23;;;;;;;11.15;5.78;;;;;;;17.31;38.91;97903.00;5036841;28;20075;-75
2021/04/21 11:29:10;;;;;;;7.78;4.78;;;;;;;17.84;37.94;97904.91;5035020;28;20400;-77
2021/04/21 11:34:28;;;;;;;7.22;4.15;;;;;;;18.15;37.07;97891.31;5031705;28;20049;-75
2021/04/21 11:37:18;;;;;;;6.32;4.20;;;;;;;18.44;37.18;97887.47;5031441;28;20804;-75
2021/04/21 11:39:57;;;;;;;8.57;3.78;;;;;;;18.45;36.38;97886.34;5032597;28;20509;-76
2021/04/21 11:42:37;;;;;;;5.75;3.90;;;;;;;18.55;36.48;97889.47;5032503;28;20033;-74
2021/04/21 11:45:11;;;;;;;8.02;3.75;;;;;;;18.60;37.03;97883.69;5031957;28;20031;-75
2021/04/21 11:47:45;;;;;;;7.90;4.95;;;;;;;18.51;36.97;97877.44;5028956;28;20010;-75
2021/04/21 11:50:16;;;;;;;5.88;4.32;;;;;;;18.54;36.17;97889.81;5027060;28;20061;-74
2021/04/21 11:52:57;;;;;;;4.93;3.78;;;;;;;18.48;36.13;97883.66;5031036;28;20022;-76
2021/04/21 11:55:36;;;;;;;8.25;5.05;;;;;;;18.53;36.16;97877.09;5029614;28;20025;-74
2021/04/21 11:58:30;;;;;;;6.03;4.22;;;;;;;18.48;36.52;97886.44;5029707;28;20044;-73
2021/04/21 12:01:07;;;;;;;7.72;4.53;;;;;;;18.51;36.43;97879.44;5029621;28;20025;-74
2021/04/21 12:03:46;;;;;;;5.60;4.13;;;;;;;18.09;36.55;97874.13;5030009;28;20515;-75